sensor_id;sensor_type;location;lat;lon;timestamp;pressure;altitude;pressure_sealevel;temperature;humidity
28428;BME280;15662;49.128;8.520;2023-08-24T00:00:00;100549.78;;;27.07;47.70
28428;BME280;15662;49.128;8.520;2023-08-24T00:02:28;100543.09;;;27.11;47.40
28428;BME280;15662;49.128;8.520;2023-08-24T00:04:55;100538.25;;;27.15;47.23
28428;BME280;15662;49.128;8.520;2023-08-24T00:07:24;100538.94;;;27.17;47.12
28428;BME280;15662;49.128;8.520;2023-08-24T00:09:53;100523.75;;;27.24;47.05
28428;BME280;15662;49.128;8.520;2023-08-24T00:12:21;100523.47;;;27.27;46.91
28428;BME280;15662;49.128;8.520;2023-08-24T00:14:49;100517.59;;;27.32;46.67
28428;BME280;15662;49.128;8.520;2023-08-24T00:17:17;100523.63;;;27.35;46.41
28428;BME280;15662;49.128;8.520;2023-08-24T00:19:45;100510.88;;;27.36;46.46
28428;BME280;15662;49.128;8.520;2023-08-24T00:22:14;100509.44;;;27.41;46.33
28428;BME280;15662;49.128;8.520;2023-08-24T00:24:42;100503.13;;;27.41;46.32
28428;BME280;15662;49.128;8.520;2023-08-24T00:27:10;100510.72;;;27.47;46.14
28428;BME280;15662;49.128;8.520;2023-08-24T00:29:37;100494.38;;;27.47;46.08
28428;BME280;15662;49.128;8.520;2023-08-24T00:32:05;100490.53;;;27.49;45.81
28428;BME280;15662;49.128;8.520;2023-08-24T00:34:33;100478.78;;;27.49;45.99
28428;BME280;15662;49.128;8.520;2023-08-24T00:37:01;100479.63;;;27.49;45.73
28428;BME280;15662;49.128;8.520;2023-08-24T00:39:30;100479.63;;;27.49;45.75
28428;BME280;15662;49.128;8.520;2023-08-24T00:41:58;100481.50;;;27.49;45.59
28428;BME280;15662;49.128;8.520;2023-08-24T00:44:25;100479.63;;;27.49;45.61
28428;BME280;15662;49.128;8.520;2023-08-24T00:46:53;100488.94;;;27.47;45.42
28428;BME280;15662;49.128;8.520;2023-08-24T00:49:22;100485.09;;;27.49;45.45
28428;BME280;15662;49.128;8.520;2023-08-24T00:51:50;100494.09;;;27.50;45.38
28428;BME280;15662;49.128;8.520;2023-08-24T00:54:18;100486.22;;;27.47;45.66
28428;BME280;15662;49.128;8.520;2023-08-24T00:56:47;100504.13;;;27.49;45.57
28428;BME280;15662;49.128;8.520;2023-08-24T00:59:15;100502.56;;;27.47;45.34
28428;BME280;15662;49.128;8.520;2023-08-24T01:01:45;100510.00;;;27.45;45.25
28428;BME280;15662;49.128;8.520;2023-08-24T01:04:14;100516.59;;;27.42;45.45
28428;BME280;15662;49.128;8.520;2023-08-24T01:06:42;100522.88;;;27.43;45.44
28428;BME280;15662;49.128;8.520;2023-08-24T01:09:10;100521.19;;;27.42;45.56
28428;BME280;15662;49.128;8.520;2023-08-24T01:12:00;100529.34;;;27.42;45.60
28428;BME280;15662;49.128;8.520;2023-08-24T01:17:04;100524.91;;;27.31;45.24
28428;BME280;15662;49.128;8.520;2023-08-24T01:19:46;100530.50;;;27.30;45.36
28428;BME280;15662;49.128;8.520;2023-08-24T01:25:05;100529.34;;;27.22;45.46
28428;BME280;15662;49.128;8.520;2023-08-24T01:27:36;100522.78;;;27.15;45.34
28428;BME280;15662;49.128;8.520;2023-08-24T01:30:06;100525.75;;;27.12;45.58
28428;BME280;15662;49.128;8.520;2023-08-24T01:32:36;100524.44;;;27.07;45.35
28428;BME280;15662;49.128;8.520;2023-08-24T01:35:09;100511.25;;;27.02;45.37
28428;BME280;15662;49.128;8.520;2023-08-24T01:37:38;100526.59;;;27.03;45.38
28428;BME280;15662;49.128;8.520;2023-08-24T01:40:15;100516.00;;;27.00;45.40
28428;BME280;15662;49.128;8.520;2023-08-24T01:42:55;100503.38;;;26.99;45.40
28428;BME280;15662;49.128;8.520;2023-08-24T01:45:30;100516.97;;;26.99;45.58
28428;BME280;15662;49.128;8.520;2023-08-24T01:48:05;100517.88;;;26.99;45.47
28428;BME280;15662;49.128;8.520;2023-08-24T01:50:34;100531.47;;;26.99;45.59
28428;BME280;15662;49.128;8.520;2023-08-24T01:53:03;100521.56;;;26.98;45.48
28428;BME280;15662;49.128;8.520;2023-08-24T01:55:31;100516.97;;;26.99;45.95
28428;BME280;15662;49.128;8.520;2023-08-24T01:57:59;100513.69;;;26.95;45.74
28428;BME280;15662;49.128;8.520;2023-08-24T02:00:27;100511.25;;;26.92;45.82
28428;BME280;15662;49.128;8.520;2023-08-24T02:02:56;100516.84;;;26.91;45.78
28428;BME280;15662;49.128;8.520;2023-08-24T02:05:25;100503.25;;;26.91;45.85
28428;BME280;15662;49.128;8.520;2023-08-24T02:07:55;100503.50;;;26.88;46.02
28428;BME280;15662;49.128;8.520;2023-08-24T02:10:23;100508.81;;;26.89;45.96
28428;BME280;15662;49.128;8.520;2023-08-24T02:12:51;100513.53;;;26.87;45.99
28428;BME280;15662;49.128;8.520;2023-08-24T02:15:21;100509.38;;;26.83;46.08
28428;BME280;15662;49.128;8.520;2023-08-24T02:17:48;100507.66;;;26.82;46.22
28428;BME280;15662;49.128;8.520;2023-08-24T02:20:17;100496.50;;;26.75;46.27
28428;BME280;15662;49.128;8.520;2023-08-24T02:22:45;100517.97;;;26.79;46.05
28428;BME280;15662;49.128;8.520;2023-08-24T02:25:12;100504.50;;;26.77;46.12
28428;BME280;15662;49.128;8.520;2023-08-24T02:27:40;100506.22;;;26.78;46.25
28428;BME280;15662;49.128;8.520;2023-08-24T02:30:08;100506.63;;;26.73;46.08
28428;BME280;15662;49.128;8.520;2023-08-24T02:32:36;100511.06;;;26.74;46.42
28428;BME280;15662;49.128;8.520;2023-08-24T02:35:05;100498.63;;;26.72;46.23
28428;BME280;15662;49.128;8.520;2023-08-24T02:37:32;100512.06;;;26.73;46.40
28428;BME280;15662;49.128;8.520;2023-08-24T02:40:01;100503.06;;;26.73;46.36
28428;BME280;15662;49.128;8.520;2023-08-24T02:42:33;100494.91;;;26.73;46.23
28428;BME280;15662;49.128;8.520;2023-08-24T02:45:01;100500.66;;;26.70;46.41
28428;BME280;15662;49.128;8.520;2023-08-24T02:47:30;100501.50;;;26.70;46.47
28428;BME280;15662;49.128;8.520;2023-08-24T02:49:58;100499.06;;;26.67;46.23
28428;BME280;15662;49.128;8.520;2023-08-24T02:52:26;100481.28;;;26.63;46.54
28428;BME280;15662;49.128;8.520;2023-08-24T02:54:54;100479.00;;;26.59;46.47
28428;BME280;15662;49.128;8.520;2023-08-24T02:57:22;100459.81;;;26.51;46.52
28428;BME280;15662;49.128;8.520;2023-08-24T02:59:50;100463.50;;;26.49;46.60
28428;BME280;15662;49.128;8.520;2023-08-24T03:02:18;100455.38;;;26.49;46.54
28428;BME280;15662;49.128;8.520;2023-08-24T03:04:46;100450.94;;;26.48;46.62
28428;BME280;15662;49.128;8.520;2023-08-24T03:07:14;100452.78;;;26.48;46.72
28428;BME280;15662;49.128;8.520;2023-08-24T03:09:42;100447.50;;;26.46;46.56
28428;BME280;15662;49.128;8.520;2023-08-24T03:12:10;100438.34;;;26.47;46.48
28428;BME280;15662;49.128;8.520;2023-08-24T03:14:38;100433.78;;;26.48;46.43
28428;BME280;15662;49.128;8.520;2023-08-24T03:17:05;100445.78;;;26.45;46.39
28428;BME280;15662;49.128;8.520;2023-08-24T03:19:35;100445.66;;;26.47;46.54
28428;BME280;15662;49.128;8.520;2023-08-24T03:22:02;100442.19;;;26.45;46.73
28428;BME280;15662;49.128;8.520;2023-08-24T03:24:30;100444.06;;;26.44;46.52
28428;BME280;15662;49.128;8.520;2023-08-24T03:26:58;100440.63;;;26.42;46.76
28428;BME280;15662;49.128;8.520;2023-08-24T03:29:26;100438.88;;;26.41;46.87
28428;BME280;15662;49.128;8.520;2023-08-24T03:31:54;100426.41;;;26.39;46.79
28428;BME280;15662;49.128;8.520;2023-08-24T03:34:22;100428.75;;;26.43;46.90
28428;BME280;15662;49.128;8.520;2023-08-24T03:36:50;100426.88;;;26.44;47.09
28428;BME280;15662;49.128;8.520;2023-08-24T03:39:19;100419.13;;;26.39;46.88
28428;BME280;15662;49.128;8.520;2023-08-24T03:41:47;100408.41;;;26.38;47.07
28428;BME280;15662;49.128;8.520;2023-08-24T03:44:15;100394.13;;;26.36;47.06
28428;BME280;15662;49.128;8.520;2023-08-24T03:46:42;100380.66;;;26.34;47.20
28428;BME280;15662;49.128;8.520;2023-08-24T03:49:10;100380.66;;;26.34;47.13
28428;BME280;15662;49.128;8.520;2023-08-24T03:51:38;100377.06;;;26.34;46.99
28428;BME280;15662;49.128;8.520;2023-08-24T03:54:06;100373.06;;;26.38;47.31
28428;BME280;15662;49.128;8.520;2023-08-24T03:56:34;100373.75;;;26.30;47.10
28428;BME280;15662;49.128;8.520;2023-08-24T03:59:03;100374.34;;;26.34;47.13
28428;BME280;15662;49.128;8.520;2023-08-24T04:01:31;100376.38;;;26.32;47.19
28428;BME280;15662;49.128;8.520;2023-08-24T04:03:59;100381.50;;;26.35;47.28
28428;BME280;15662;49.128;8.520;2023-08-24T04:06:29;100386.06;;;26.34;47.10
28428;BME280;15662;49.128;8.520;2023-08-24T04:08:57;100391.09;;;26.39;47.05
28428;BME280;15662;49.128;8.520;2023-08-24T04:11:25;100378.66;;;26.36;47.04
28428;BME280;15662;49.128;8.520;2023-08-24T04:13:52;100380.09;;;26.40;47.31
28428;BME280;15662;49.128;8.520;2023-08-24T04:16:20;100375.78;;;26.38;47.19
28428;BME280;15662;49.128;8.520;2023-08-24T04:18:48;100382.56;;;26.43;47.15
28428;BME280;15662;49.128;8.520;2023-08-24T04:21:16;100385.53;;;26.40;47.14
28428;BME280;15662;49.128;8.520;2023-08-24T04:23:44;100387.38;;;26.40;47.21
28428;BME280;15662;49.128;8.520;2023-08-24T04:26:12;100380.22;;;26.39;46.83
28428;BME280;15662;49.128;8.520;2023-08-24T04:28:40;100380.09;;;26.40;47.19
28428;BME280;15662;49.128;8.520;2023-08-24T04:31:08;100381.53;;;26.44;46.94
28428;BME280;15662;49.128;8.520;2023-08-24T04:33:36;100375.25;;;26.44;46.90
28428;BME280;15662;49.128;8.520;2023-08-24T04:36:04;100376.00;;;26.46;46.81
28428;BME280;15662;49.128;8.520;2023-08-24T04:38:32;100368.53;;;26.48;46.93
28428;BME280;15662;49.128;8.520;2023-08-24T04:41:00;100365.66;;;26.49;47.09
28428;BME280;15662;49.128;8.520;2023-08-24T04:43:28;100371.00;;;26.51;46.88
28428;BME280;15662;49.128;8.520;2023-08-24T04:45:55;100362.84;;;26.51;47.10
28428;BME280;15662;49.128;8.520;2023-08-24T04:48:25;100363.69;;;26.52;46.80
28428;BME280;15662;49.128;8.520;2023-08-24T04:50:53;100348.66;;;26.47;46.82
28428;BME280;15662;49.128;8.520;2023-08-24T04:53:23;100365.56;;;26.51;46.90
28428;BME280;15662;49.128;8.520;2023-08-24T04:55:52;100360.97;;;26.52;46.69
28428;BME280;15662;49.128;8.520;2023-08-24T04:58:20;100357.41;;;26.51;46.79
28428;BME280;15662;49.128;8.520;2023-08-24T05:00:48;100356.66;;;26.49;46.77
28428;BME280;15662;49.128;8.520;2023-08-24T05:03:16;100365.81;;;26.48;46.83
28428;BME280;15662;49.128;8.520;2023-08-24T05:05:44;100367.69;;;26.47;46.80
28428;BME280;15662;49.128;8.520;2023-08-24T05:08:12;100363.81;;;26.50;46.99
28428;BME280;15662;49.128;8.520;2023-08-24T05:10:40;100372.97;;;26.49;46.75
28428;BME280;15662;49.128;8.520;2023-08-24T05:13:08;100375.25;;;26.54;46.79
28428;BME280;15662;49.128;8.520;2023-08-24T05:15:36;100371.41;;;26.56;46.58
28428;BME280;15662;49.128;8.520;2023-08-24T05:18:04;100366.53;;;26.60;46.88
28428;BME280;15662;49.128;8.520;2023-08-24T05:20:32;100366.41;;;26.61;46.81
28428;BME280;15662;49.128;8.520;2023-08-24T05:23:00;100375.00;;;26.66;46.84
28428;BME280;15662;49.128;8.520;2023-08-24T05:25:28;100375.69;;;26.68;46.89
28428;BME280;15662;49.128;8.520;2023-08-24T05:27:56;100377.41;;;26.69;46.86
28428;BME280;15662;49.128;8.520;2023-08-24T05:30:23;100389.59;;;26.75;46.81
28428;BME280;15662;49.128;8.520;2023-08-24T05:32:52;100377.72;;;26.76;46.72
28428;BME280;15662;49.128;8.520;2023-08-24T05:35:20;100384.16;;;26.75;46.69
28428;BME280;15662;49.128;8.520;2023-08-24T05:37:50;100372.56;;;26.73;46.67
28428;BME280;15662;49.128;8.520;2023-08-24T05:40:18;100395.75;;;26.77;46.70
28428;BME280;15662;49.128;8.520;2023-08-24T05:42:46;100402.19;;;26.76;46.70
28428;BME280;15662;49.128;8.520;2023-08-24T05:45:14;100406.34;;;26.80;46.59
28428;BME280;15662;49.128;8.520;2023-08-24T05:47:41;100438.09;;;26.80;46.54
28428;BME280;15662;49.128;8.520;2023-08-24T05:50:09;100442.66;;;26.79;46.64
28428;BME280;15662;49.128;8.520;2023-08-24T05:52:39;100470.72;;;26.80;46.57
28428;BME280;15662;49.128;8.520;2023-08-24T05:55:07;100495.06;;;26.81;46.63
28428;BME280;15662;49.128;8.520;2023-08-24T05:57:35;100501.38;;;26.82;46.64
28428;BME280;15662;49.128;8.520;2023-08-24T06:00:04;100503.22;;;26.81;46.64
28428;BME280;15662;49.128;8.520;2023-08-24T06:02:42;100516.25;;;26.78;46.58
28428;BME280;15662;49.128;8.520;2023-08-24T06:05:10;100521.69;;;26.78;46.49
28428;BME280;15662;49.128;8.520;2023-08-24T06:07:38;100521.94;;;26.74;46.51
28428;BME280;15662;49.128;8.520;2023-08-24T06:10:07;100511.50;;;26.80;46.28
28428;BME280;15662;49.128;8.520;2023-08-24T06:12:35;100502.38;;;26.81;46.17
28428;BME280;15662;49.128;8.520;2023-08-24T06:15:04;100506.66;;;26.83;46.03
28428;BME280;15662;49.128;8.520;2023-08-24T06:17:32;100500.38;;;26.83;45.80
28428;BME280;15662;49.128;8.520;2023-08-24T06:20:00;100506.81;;;26.82;45.56
28428;BME280;15662;49.128;8.520;2023-08-24T06:22:28;100501.22;;;26.83;45.51
28428;BME280;15662;49.128;8.520;2023-08-24T06:24:56;100493.78;;;26.85;45.25
28428;BME280;15662;49.128;8.520;2023-08-24T06:27:27;100508.25;;;26.86;45.21
28428;BME280;15662;49.128;8.520;2023-08-24T06:29:55;100512.53;;;26.88;45.06
28428;BME280;15662;49.128;8.520;2023-08-24T06:32:23;100506.25;;;26.88;44.92
28428;BME280;15662;49.128;8.520;2023-08-24T06:34:50;100486.94;;;26.91;44.94
28428;BME280;15662;49.128;8.520;2023-08-24T06:37:19;100453.28;;;26.92;44.98
28428;BME280;15662;49.128;8.520;2023-08-24T06:39:46;100452.84;;;26.96;45.06
28428;BME280;15662;49.128;8.520;2023-08-24T06:42:14;100445.72;;;26.95;45.04
28428;BME280;15662;49.128;8.520;2023-08-24T06:44:44;100444.44;;;26.99;45.16
28428;BME280;15662;49.128;8.520;2023-08-24T06:47:12;100439.53;;;27.03;45.10
28428;BME280;15662;49.128;8.520;2023-08-24T06:49:40;100439.13;;;27.08;45.04
28428;BME280;15662;49.128;8.520;2023-08-24T06:52:08;100434.97;;;27.13;44.99
28428;BME280;15662;49.128;8.520;2023-08-24T06:54:36;100425.38;;;27.19;44.91
28428;BME280;15662;49.128;8.520;2023-08-24T06:57:04;100414.03;;;27.23;44.71
28428;BME280;15662;49.128;8.520;2023-08-24T06:59:32;100396.00;;;27.22;44.70
28428;BME280;15662;49.128;8.520;2023-08-24T07:02:00;100414.78;;;27.25;44.59
28428;BME280;15662;49.128;8.520;2023-08-24T07:04:29;100420.66;;;27.31;44.59
28428;BME280;15662;49.128;8.520;2023-08-24T07:06:58;100428.22;;;27.37;44.61
28428;BME280;15662;49.128;8.520;2023-08-24T07:09:26;100435.09;;;27.41;44.63
28428;BME280;15662;49.128;8.520;2023-08-24T07:11:55;100427.91;;;27.49;44.71
28428;BME280;15662;49.128;8.520;2023-08-24T07:14:23;100433.78;;;27.55;44.59
28428;BME280;15662;49.128;8.520;2023-08-24T07:16:50;100420.84;;;27.57;44.51
28428;BME280;15662;49.128;8.520;2023-08-24T07:19:18;100436.88;;;27.69;44.45
28428;BME280;15662;49.128;8.520;2023-08-24T07:21:46;100427.28;;;27.75;44.66
28428;BME280;15662;49.128;8.520;2023-08-24T07:24:14;100413.06;;;27.81;44.63
28428;BME280;15662;49.128;8.520;2023-08-24T07:26:42;100424.63;;;27.93;44.69
28428;BME280;15662;49.128;8.520;2023-08-24T07:29:10;100423.88;;;28.00;44.66
28428;BME280;15662;49.128;8.520;2023-08-24T07:31:38;100424.25;;;28.15;44.33
28428;BME280;15662;49.128;8.520;2023-08-24T07:34:06;100423.72;;;28.29;44.70
28428;BME280;15662;49.128;8.520;2023-08-24T07:36:34;100424.41;;;28.41;44.33
28428;BME280;15662;49.128;8.520;2023-08-24T07:39:02;100434.22;;;28.52;44.38
28428;BME280;15662;49.128;8.520;2023-08-24T07:41:29;100433.88;;;28.65;43.98
28428;BME280;15662;49.128;8.520;2023-08-24T07:43:57;100427.94;;;28.69;43.75
28428;BME280;15662;49.128;8.520;2023-08-24T07:46:25;100441.03;;;28.84;43.78
28428;BME280;15662;49.128;8.520;2023-08-24T07:48:53;100448.00;;;28.96;43.84
28428;BME280;15662;49.128;8.520;2023-08-24T07:51:21;100444.34;;;29.05;43.53
28428;BME280;15662;49.128;8.520;2023-08-24T07:53:49;100451.41;;;29.16;43.06
28428;BME280;15662;49.128;8.520;2023-08-24T07:56:19;100441.44;;;29.24;42.65
28428;BME280;15662;49.128;8.520;2023-08-24T07:58:47;100446.78;;;29.34;42.61
28428;BME280;15662;49.128;8.520;2023-08-24T08:01:15;100449.75;;;29.41;42.32
28428;BME280;15662;49.128;8.520;2023-08-24T08:03:43;100465.66;;;29.45;42.51
28428;BME280;15662;49.128;8.520;2023-08-24T08:06:10;100453.56;;;29.48;41.92
28428;BME280;15662;49.128;8.520;2023-08-24T08:08:39;100445.91;;;29.51;42.08
28428;BME280;15662;49.128;8.520;2023-08-24T08:11:07;100445.06;;;29.51;42.03
28428;BME280;15662;49.128;8.520;2023-08-24T08:13:35;100445.06;;;29.51;42.01
28428;BME280;15662;49.128;8.520;2023-08-24T08:16:05;100437.56;;;29.53;41.70
28428;BME280;15662;49.128;8.520;2023-08-24T08:18:35;100429.53;;;29.51;41.63
28428;BME280;15662;49.128;8.520;2023-08-24T08:21:30;100434.81;;;29.53;41.83
28428;BME280;15662;49.128;8.520;2023-08-24T08:23:58;100441.84;;;29.55;42.49
28428;BME280;15662;49.128;8.520;2023-08-24T08:26:25;100436.94;;;29.59;42.22
28428;BME280;15662;49.128;8.520;2023-08-24T08:28:53;100436.78;;;29.61;41.66
28428;BME280;15662;49.128;8.520;2023-08-24T08:31:21;100429.28;;;29.63;41.99
28428;BME280;15662;49.128;8.520;2023-08-24T08:33:49;100411.88;;;29.64;41.73
28428;BME280;15662;49.128;8.520;2023-08-24T08:36:17;100427.78;;;29.68;41.64
28428;BME280;15662;49.128;8.520;2023-08-24T08:38:44;100413.94;;;29.70;41.80
28428;BME280;15662;49.128;8.520;2023-08-24T08:41:13;100410.06;;;29.72;41.77
28428;BME280;15662;49.128;8.520;2023-08-24T08:43:42;100411.09;;;29.79;41.40
28428;BME280;15662;49.128;8.520;2023-08-24T08:46:10;100400.03;;;29.81;41.64
28428;BME280;15662;49.128;8.520;2023-08-24T08:48:41;100387.13;;;29.65;42.24
28428;BME280;15662;49.128;8.520;2023-08-24T08:51:09;100376.44;;;29.80;41.83
28428;BME280;15662;49.128;8.520;2023-08-24T08:53:38;100361.97;;;29.88;41.31
28428;BME280;15662;49.128;8.520;2023-08-24T08:56:07;100348.00;;;29.99;40.88
28428;BME280;15662;49.128;8.520;2023-08-24T08:58:36;100341.53;;;30.08;40.77
28428;BME280;15662;49.128;8.520;2023-08-24T09:01:04;100346.69;;;30.11;40.86
28428;BME280;15662;49.128;8.520;2023-08-24T09:03:34;100328.78;;;30.17;40.55
28428;BME280;15662;49.128;8.520;2023-08-24T09:06:03;100332.56;;;30.24;40.21
28428;BME280;15662;49.128;8.520;2023-08-24T09:08:31;100319.22;;;30.29;40.45
28428;BME280;15662;49.128;8.520;2023-08-24T09:10:59;100322.16;;;30.36;40.04
28428;BME280;15662;49.128;8.520;2023-08-24T09:13:27;100311.22;;;30.44;40.26
28428;BME280;15662;49.128;8.520;2023-08-24T09:16:04;100309.16;;;30.54;39.91
28428;BME280;15662;49.128;8.520;2023-08-24T09:18:43;100316.53;;;30.62;39.60
28428;BME280;15662;49.128;8.520;2023-08-24T09:21:13;100315.00;;;30.67;39.65
28428;BME280;15662;49.128;8.520;2023-08-24T09:23:52;100316.75;;;30.76;39.67
28428;BME280;15662;49.128;8.520;2023-08-24T09:26:31;100321.00;;;30.87;39.60
28428;BME280;15662;49.128;8.520;2023-08-24T09:29:14;100308.50;;;30.93;39.58
28428;BME280;15662;49.128;8.520;2023-08-24T09:31:43;100300.97;;;31.03;39.61
28428;BME280;15662;49.128;8.520;2023-08-24T09:34:24;100282.13;;;31.08;39.35
28428;BME280;15662;49.128;8.520;2023-08-24T09:36:58;100268.09;;;31.19;39.14
28428;BME280;15662;49.128;8.520;2023-08-24T09:39:26;100262.75;;;31.26;39.04
28428;BME280;15662;49.128;8.520;2023-08-24T09:41:54;100249.56;;;31.38;38.81
28428;BME280;15662;49.128;8.520;2023-08-24T09:44:21;100247.00;;;31.44;38.56
28428;BME280;15662;49.128;8.520;2023-08-24T09:46:50;100246.59;;;31.55;38.50
28428;BME280;15662;49.128;8.520;2023-08-24T09:49:19;100242.78;;;31.65;38.28
28428;BME280;15662;49.128;8.520;2023-08-24T09:51:48;100242.44;;;31.68;38.54
28428;BME280;15662;49.128;8.520;2023-08-24T09:54:17;100242.38;;;31.76;38.18
28428;BME280;15662;49.128;8.520;2023-08-24T09:56:50;100232.91;;;31.87;38.14
28428;BME280;15662;49.128;8.520;2023-08-24T09:59:19;100246.38;;;31.96;37.93
28428;BME280;15662;49.128;8.520;2023-08-24T10:01:50;100231.09;;;32.02;37.94
28428;BME280;15662;49.128;8.520;2023-08-24T10:04:27;100226.91;;;32.14;37.71
28428;BME280;15662;49.128;8.520;2023-08-24T10:07:02;100213.50;;;32.19;37.81
28428;BME280;15662;49.128;8.520;2023-08-24T10:09:40;100211.50;;;32.36;37.45
28428;BME280;15662;49.128;8.520;2023-08-24T10:12:13;100214.19;;;32.44;37.77
28428;BME280;15662;49.128;8.520;2023-08-24T10:14:47;100212.53;;;32.58;37.58
28428;BME280;15662;49.128;8.520;2023-08-24T10:17:22;100201.63;;;32.65;37.22
28428;BME280;15662;49.128;8.520;2023-08-24T10:19:52;100194.84;;;32.75;37.10
28428;BME280;15662;49.128;8.520;2023-08-24T10:22:20;100190.69;;;32.79;36.85
28428;BME280;15662;49.128;8.520;2023-08-24T10:24:49;100173.84;;;32.82;36.58
28428;BME280;15662;49.128;8.520;2023-08-24T10:27:19;100185.97;;;32.88;36.56
28428;BME280;15662;49.128;8.520;2023-08-24T10:29:47;100185.22;;;32.94;36.50
28428;BME280;15662;49.128;8.520;2023-08-24T10:32:15;100174.53;;;32.99;36.41
28428;BME280;15662;49.128;8.520;2023-08-24T10:34:44;100171.41;;;33.02;36.51
28428;BME280;15662;49.128;8.520;2023-08-24T10:37:12;100162.41;;;33.08;36.30
28428;BME280;15662;49.128;8.520;2023-08-24T10:39:47;100149.44;;;33.17;36.17
28428;BME280;15662;49.128;8.520;2023-08-24T10:42:15;100139.78;;;33.21;36.22
28428;BME280;15662;49.128;8.520;2023-08-24T10:44:47;100147.72;;;33.31;36.16
28428;BME280;15662;49.128;8.520;2023-08-24T10:47:23;100132.16;;;33.38;35.95
28428;BME280;15662;49.128;8.520;2023-08-24T10:52:33;100132.59;;;33.56;36.02
28428;BME280;15662;49.128;8.520;2023-08-24T10:55:05;100130.13;;;33.61;36.01
28428;BME280;15662;49.128;8.520;2023-08-24T10:57:57;100121.94;;;33.68;35.52
28428;BME280;15662;49.128;8.520;2023-08-24T11:00:29;100120.13;;;33.75;35.67
28428;BME280;15662;49.128;8.520;2023-08-24T11:02:58;100115.91;;;33.79;35.20
28428;BME280;15662;49.128;8.520;2023-08-24T11:05:30;100118.75;;;33.86;35.59
28428;BME280;15662;49.128;8.520;2023-08-24T11:08:05;100104.78;;;33.87;35.06
28428;BME280;15662;49.128;8.520;2023-08-24T11:10:45;100107.66;;;33.94;35.46
28428;BME280;15662;49.128;8.520;2023-08-24T11:13:18;100108.28;;;33.96;35.42
28428;BME280;15662;49.128;8.520;2023-08-24T11:15:51;100103.50;;;34.05;35.09
28428;BME280;15662;49.128;8.520;2023-08-24T11:18:27;100107.75;;;34.07;35.24
28428;BME280;15662;49.128;8.520;2023-08-24T11:21:02;100107.16;;;34.12;34.79
28428;BME280;15662;49.128;8.520;2023-08-24T11:23:31;100096.56;;;34.09;34.87
28428;BME280;15662;49.128;8.520;2023-08-24T11:26:00;100106.16;;;34.20;35.17
28428;BME280;15662;49.128;8.520;2023-08-24T11:28:30;100102.41;;;34.27;35.13
28428;BME280;15662;49.128;8.520;2023-08-24T11:30:59;100097.34;;;34.31;35.01
28428;BME280;15662;49.128;8.520;2023-08-24T11:33:34;100087.69;;;34.42;35.12
28428;BME280;15662;49.128;8.520;2023-08-24T11:36:05;100087.38;;;34.51;34.79
28428;BME280;15662;49.128;8.520;2023-08-24T11:38:40;100071.94;;;34.57;34.64
28428;BME280;15662;49.128;8.520;2023-08-24T11:41:17;100085.34;;;34.67;33.99
28428;BME280;15662;49.128;8.520;2023-08-24T11:43:48;100075.63;;;34.71;34.04
28428;BME280;15662;49.128;8.520;2023-08-24T11:46:18;100072.03;;;34.77;34.13
28428;BME280;15662;49.128;8.520;2023-08-24T11:48:46;100077.19;;;34.86;34.13
28428;BME280;15662;49.128;8.520;2023-08-24T11:51:14;100075.31;;;34.94;33.98
28428;BME280;15662;49.128;8.520;2023-08-24T11:53:52;100064.81;;;35.04;33.61
28428;BME280;15662;49.128;8.520;2023-08-24T11:56:20;100053.41;;;35.13;33.40
28428;BME280;15662;49.128;8.520;2023-08-24T11:58:49;100056.16;;;35.20;33.65
28428;BME280;15662;49.128;8.520;2023-08-24T12:01:18;100047.50;;;35.30;33.58
28428;BME280;15662;49.128;8.520;2023-08-24T12:03:46;100039.28;;;35.43;33.66
28428;BME280;15662;49.128;8.520;2023-08-24T12:06:16;100038.66;;;35.54;33.39
28428;BME280;15662;49.128;8.520;2023-08-24T12:08:48;100026.38;;;35.63;33.63
28428;BME280;15662;49.128;8.520;2023-08-24T12:11:19;100010.50;;;35.72;33.55
28428;BME280;15662;49.128;8.520;2023-08-24T12:13:50;100016.44;;;35.82;33.06
28428;BME280;15662;49.128;8.520;2023-08-24T12:16:20;99997.97;;;35.83;33.13
28428;BME280;15662;49.128;8.520;2023-08-24T12:18:55;100009.22;;;35.88;32.97
28428;BME280;15662;49.128;8.520;2023-08-24T12:21:23;100006.88;;;35.91;32.94
28428;BME280;15662;49.128;8.520;2023-08-24T12:24:03;100002.63;;;35.96;32.73
28428;BME280;15662;49.128;8.520;2023-08-24T12:26:34;99992.88;;;35.93;33.00
28428;BME280;15662;49.128;8.520;2023-08-24T12:29:05;99992.66;;;35.81;33.38
28428;BME280;15662;49.128;8.520;2023-08-24T12:31:34;99995.44;;;35.95;33.31
28428;BME280;15662;49.128;8.520;2023-08-24T12:34:06;99995.00;;;36.04;33.21
28428;BME280;15662;49.128;8.520;2023-08-24T12:36:38;99989.69;;;36.09;32.95
28428;BME280;15662;49.128;8.520;2023-08-24T12:39:07;99964.22;;;36.07;33.02
28428;BME280;15662;49.128;8.520;2023-08-24T12:41:38;99958.47;;;36.15;32.99
28428;BME280;15662;49.128;8.520;2023-08-24T12:44:07;99933.00;;;36.13;32.84
28428;BME280;15662;49.128;8.520;2023-08-24T12:46:38;99945.28;;;36.24;32.80
28428;BME280;15662;49.128;8.520;2023-08-24T12:49:06;99940.81;;;36.30;32.80
28428;BME280;15662;49.128;8.520;2023-08-24T12:51:34;99962.03;;;36.36;32.96
28428;BME280;15662;49.128;8.520;2023-08-24T12:54:01;99956.91;;;36.39;32.69
28428;BME280;15662;49.128;8.520;2023-08-24T12:56:29;99955.22;;;36.45;32.70
28428;BME280;15662;49.128;8.520;2023-08-24T12:58:57;99948.84;;;36.51;32.73
28428;BME280;15662;49.128;8.520;2023-08-24T13:01:25;99947.13;;;36.57;32.83
28428;BME280;15662;49.128;8.520;2023-08-24T13:03:53;99953.44;;;36.64;32.93
28428;BME280;15662;49.128;8.520;2023-08-24T13:06:20;99947.06;;;36.70;32.84
28428;BME280;15662;49.128;8.520;2023-08-24T13:08:53;99925.81;;;36.71;32.79